»·PEaware :: N5826T KSNA-KVNY

N5826T :: KSNA-KVNY

FLIGHT INFORMATION

Flight Status: Arrived
Operator: Privately registered:
United States
More flights under this callsign
Pilot: Daniel J. (32090)
Aircraft: Diamond DA-62
(DA62)
More flights by this aircraft type
Origin: KSNA John Wayne-Orange Co
United States
Destination: KVNY Van Nuys
United States
More flights between these airports :: More routes between these airports
Route:
File this flight plan on PilotEdge
Remarks:
Altitude:
(Current/Filed)
3,500ft
Speed:
(Current/Filed)
0kts
Departed: 12-Feb-21 06:56 PM
Arrived: 12-Feb-21 07:30 PM
Distance/Time
Traveled:
51nm/0:34
Distance/Time
To Go:
Arrived

Flight Plot

Page will automatically refresh every two minutes.


Map Options




Map Legend


Flown Route
Filed Route
Departure Airport
Arrival Airport
Navaid (VOR, NDB)
Fix

Horizontal Profiles

Position Reports

Time Latitude Longitude Heading Altitude Ground
Speed
12-Feb-21 18:44 33.672135 -117.873253 27 60ft 0kts
12-Feb-21 18:45 33.672135 -117.873253 27 60ft 0kts
12-Feb-21 18:46 33.672135 -117.873253 27 60ft 0kts
12-Feb-21 18:47 33.672135 -117.873253 27 60ft 0kts
12-Feb-21 18:48 33.672135 -117.873253 27 60ft 0kts
12-Feb-21 18:49 33.672135 -117.873253 27 60ft 0kts
12-Feb-21 18:50 33.673580 -117.871662 27 60ft 17kts
12-Feb-21 18:51 33.678179 -117.868746 27 60ft 18kts
12-Feb-21 18:52 33.681218 -117.866436 116 60ft 0kts
12-Feb-21 18:53 33.681218 -117.866436 116 60ft 0kts
12-Feb-21 18:54 33.680790 -117.865656 184 60ft 10kts
12-Feb-21 18:55 33.664066 -117.881423 240 871ft 96kts
12-Feb-21 18:57 33.651343 -117.909660 241 2256ft 95kts
12-Feb-21 18:58 33.635841 -117.942082 241 2497ft 119kts
12-Feb-21 18:59 33.646741 -117.973586 345 2490ft 131kts
12-Feb-21 19:00 33.678191 -117.949618 36 2506ft 138kts
12-Feb-21 19:01 33.708197 -117.920628 35 2501ft 138kts
12-Feb-21 19:02 33.738374 -117.891545 35 2498ft 138kts
12-Feb-21 19:03 33.768578 -117.862366 36 2497ft 139kts
12-Feb-21 19:04 33.804456 -117.851478 0 2500ft 134kts
12-Feb-21 19:05 33.841559 -117.845410 6 2499ft 135kts
12-Feb-21 19:06 33.879321 -117.837919 5 2499ft 135kts
12-Feb-21 19:07 33.916657 -117.833937 356 2500ft 134kts
12-Feb-21 19:08 33.953652 -117.838075 351 2499ft 131kts
12-Feb-21 19:09 33.990103 -117.843139 351 2499ft 131kts
12-Feb-21 19:10 34.025245 -117.853602 322 2501ft 129kts
12-Feb-21 19:11 34.050491 -117.883130 287 2546ft 129kts
12-Feb-21 19:12 34.062097 -117.924069 286 2536ft 127kts
12-Feb-21 19:13 34.073902 -117.964668 286 2536ft 127kts
12-Feb-21 19:13 34.083702 -117.998486 286 2538ft 127kts
12-Feb-21 19:14 34.095408 -118.040222 285 2536ft 132kts
12-Feb-21 19:16 34.108913 -118.089999 285 2536ft 133kts
12-Feb-21 19:16 34.118542 -118.125495 285 2536ft 133kts
12-Feb-21 19:17 34.130008 -118.167553 285 2534ft 129kts
12-Feb-21 19:18 34.139950 -118.207687 284 2533ft 121kts
12-Feb-21 19:19 34.148762 -118.246656 284 2535ft 118kts
12-Feb-21 19:20 34.157302 -118.284634 284 2535ft 116kts
12-Feb-21 19:21 34.165145 -118.319560 285 2361ft 95kts
12-Feb-21 19:22 34.171917 -118.349928 289 1796ft 93kts
12-Feb-21 19:23 34.180708 -118.378927 294 1684ft 91kts
12-Feb-21 19:24 34.189716 -118.407520 290 1820ft 91kts
12-Feb-21 19:25 34.196146 -118.437806 285 1917ft 92kts
12-Feb-21 19:26 34.203247 -118.468934 301 1804ft 97kts
12-Feb-21 19:27 34.228723 -118.471728 356 1657ft 88kts
12-Feb-21 19:28 34.224697 -118.490504 178 1060ft 93kts
12-Feb-21 19:29 34.210310 -118.488588 84 805ft 0kts
12-Feb-21 19:30 34.212487 -118.488593 354 805ft 22kts
12-Feb-21 19:31 34.218324 -118.489433 355 805ft 17kts
12-Feb-21 19:32 34.218703 -118.489491 336 805ft 0kts
12-Feb-21 19:33 34.218703 -118.489491 336 805ft 0kts
12-Feb-21 19:34 34.218703 -118.489491 336 805ft 0kts
12-Feb-21 19:35 34.212095 -118.489341 176 828ft 96kts
12-Feb-21 19:36 34.193429 -118.504880 276 1820ft 102kts
12-Feb-21 19:37 34.225360 -118.512253 356 1855ft 138kts
12-Feb-21 19:38 34.263446 -118.514122 356 1964ft 132kts
12-Feb-21 19:39 34.290894 -118.514847 356 3498ft 93kts
12-Feb-21 19:40 34.316821 -118.515695 356 4673ft 94kts
12-Feb-21 19:41 34.343115 -118.517215 356 5835ft 96kts
12-Feb-21 19:42 34.361753 -118.501008 68 6982ft 100kts
12-Feb-21 19:43 34.374781 -118.466707 62 7550ft 138kts
12-Feb-21 19:44 34.393296 -118.420264 62 7538ft 161kts

Navigation Log

Ident Type
Flight plan parsing failed, navigation log unavailable